sensor_id;sensor_type;location;lat;lon;timestamp;P1;durP1;ratioP1;P2;durP2;ratioP2
6483;SDS011;3275;52.376;9.694;2023-11-18T01:35:25;28.43;;;14.57;;
6483;SDS011;3275;52.376;9.694;2023-11-18T01:37:52;30.10;;;14.80;;
6483;SDS011;3275;52.376;9.694;2023-11-18T01:40:19;31.30;;;14.30;;
6483;SDS011;3275;52.376;9.694;2023-11-18T01:42:46;26.53;;;14.03;;
6483;SDS011;3275;52.376;9.694;2023-11-18T01:45:13;25.40;;;13.60;;
6483;SDS011;3275;52.376;9.694;2023-11-18T01:47:41;27.13;;;14.13;;
6483;SDS011;3275;52.376;9.694;2023-11-18T01:50:10;23.90;;;13.83;;
6483;SDS011;3275;52.376;9.694;2023-11-18T01:52:40;23.23;;;13.43;;
6483;SDS011;3275;52.376;9.694;2023-11-18T01:55:07;25.50;;;13.00;;
6483;SDS011;3275;52.376;9.694;2023-11-18T01:57:35;25.23;;;13.40;;
6483;SDS011;3275;52.376;9.694;2023-11-18T02:00:03;22.73;;;12.43;;
6483;SDS011;3275;52.376;9.694;2023-11-18T02:02:31;23.30;;;12.27;;
6483;SDS011;3275;52.376;9.694;2023-11-18T02:04:59;32.03;;;12.40;;
6483;SDS011;3275;52.376;9.694;2023-11-18T02:07:28;22.57;;;13.53;;
6483;SDS011;3275;52.376;9.694;2023-11-18T02:09:55;22.77;;;12.50;;
6483;SDS011;3275;52.376;9.694;2023-11-18T02:12:23;24.90;;;13.07;;
6483;SDS011;3275;52.376;9.694;2023-11-18T02:14:54;26.13;;;13.03;;
6483;SDS011;3275;52.376;9.694;2023-11-18T02:17:25;24.40;;;13.03;;
6483;SDS011;3275;52.376;9.694;2023-11-18T02:19:54;22.30;;;12.63;;
6483;SDS011;3275;52.376;9.694;2023-11-18T02:22:23;28.97;;;11.83;;
6483;SDS011;3275;52.376;9.694;2023-11-18T02:24:51;27.63;;;13.83;;
6483;SDS011;3275;52.376;9.694;2023-11-18T02:27:19;21.63;;;11.40;;
6483;SDS011;3275;52.376;9.694;2023-11-18T02:29:47;17.97;;;11.13;;
6483;SDS011;3275;52.376;9.694;2023-11-18T02:32:18;25.27;;;11.50;;
6483;SDS011;3275;52.376;9.694;2023-11-18T02:34:50;24.80;;;11.60;;
6483;SDS011;3275;52.376;9.694;2023-11-18T02:37:24;21.90;;;10.73;;
6483;SDS011;3275;52.376;9.694;2023-11-18T02:39:53;17.47;;;10.77;;
6483;SDS011;3275;52.376;9.694;2023-11-18T02:42:29;15.50;;;9.87;;
6483;SDS011;3275;52.376;9.694;2023-11-18T02:44:57;19.43;;;11.33;;
6483;SDS011;3275;52.376;9.694;2023-11-18T02:47:25;21.53;;;11.50;;
6483;SDS011;3275;52.376;9.694;2023-11-18T02:49:55;21.37;;;12.30;;
6483;SDS011;3275;52.376;9.694;2023-11-18T02:52:28;22.57;;;12.43;;
6483;SDS011;3275;52.376;9.694;2023-11-18T02:54:54;25.03;;;12.77;;
6483;SDS011;3275;52.376;9.694;2023-11-18T02:57:21;21.10;;;11.40;;
6483;SDS011;3275;52.376;9.694;2023-11-18T02:59:49;20.03;;;11.20;;
6483;SDS011;3275;52.376;9.694;2023-11-18T03:02:16;18.77;;;11.83;;
6483;SDS011;3275;52.376;9.694;2023-11-18T03:04:46;17.17;;;11.40;;
6483;SDS011;3275;52.376;9.694;2023-11-18T03:07:12;20.47;;;11.50;;
6483;SDS011;3275;52.376;9.694;2023-11-18T03:09:39;22.27;;;11.63;;
6483;SDS011;3275;52.376;9.694;2023-11-18T03:12:06;27.80;;;12.50;;
6483;SDS011;3275;52.376;9.694;2023-11-18T03:14:33;22.73;;;12.90;;
6483;SDS011;3275;52.376;9.694;2023-11-18T03:17:01;21.10;;;12.00;;
6483;SDS011;3275;52.376;9.694;2023-11-18T03:19:31;23.30;;;11.97;;
6483;SDS011;3275;52.376;9.694;2023-11-18T03:21:58;27.60;;;13.40;;
6483;SDS011;3275;52.376;9.694;2023-11-18T03:24:24;21.00;;;11.70;;
6483;SDS011;3275;52.376;9.694;2023-11-18T03:26:51;24.90;;;13.83;;
6483;SDS011;3275;52.376;9.694;2023-11-18T03:29:18;20.43;;;12.70;;
6483;SDS011;3275;52.376;9.694;2023-11-18T03:31:44;26.07;;;13.70;;
6483;SDS011;3275;52.376;9.694;2023-11-18T03:34:14;19.33;;;12.20;;
6483;SDS011;3275;52.376;9.694;2023-11-18T03:36:41;22.57;;;13.43;;
6483;SDS011;3275;52.376;9.694;2023-11-18T03:39:10;26.57;;;13.30;;
6483;SDS011;3275;52.376;9.694;2023-11-18T03:41:37;27.80;;;16.03;;
6483;SDS011;3275;52.376;9.694;2023-11-18T03:44:04;24.00;;;13.87;;
6483;SDS011;3275;52.376;9.694;2023-11-18T03:46:30;25.10;;;15.30;;
6483;SDS011;3275;52.376;9.694;2023-11-18T03:48:59;32.43;;;14.60;;
6483;SDS011;3275;52.376;9.694;2023-11-18T03:51:27;28.53;;;16.57;;
6483;SDS011;3275;52.376;9.694;2023-11-18T03:53:54;30.63;;;16.00;;
6483;SDS011;3275;52.376;9.694;2023-11-18T03:56:21;27.17;;;15.47;;
6483;SDS011;3275;52.376;9.694;2023-11-18T03:58:48;26.63;;;15.07;;
6483;SDS011;3275;52.376;9.694;2023-11-18T04:01:19;25.30;;;13.73;;
6483;SDS011;3275;52.376;9.694;2023-11-18T04:03:46;28.47;;;15.67;;
6483;SDS011;3275;52.376;9.694;2023-11-18T04:06:13;24.73;;;13.90;;
6483;SDS011;3275;52.376;9.694;2023-11-18T04:08:43;24.33;;;14.10;;
6483;SDS011;3275;52.376;9.694;2023-11-18T04:11:10;29.57;;;14.67;;
6483;SDS011;3275;52.376;9.694;2023-11-18T04:13:38;23.37;;;14.40;;
6483;SDS011;3275;52.376;9.694;2023-11-18T04:16:06;22.27;;;14.00;;
6483;SDS011;3275;52.376;9.694;2023-11-18T04:18:37;22.40;;;14.43;;
6483;SDS011;3275;52.376;9.694;2023-11-18T04:21:04;27.03;;;15.50;;
6483;SDS011;3275;52.376;9.694;2023-11-18T04:23:31;22.30;;;13.60;;
6483;SDS011;3275;52.376;9.694;2023-11-18T04:26:01;26.60;;;13.70;;
6483;SDS011;3275;52.376;9.694;2023-11-18T04:28:28;22.83;;;14.40;;
6483;SDS011;3275;52.376;9.694;2023-11-18T04:30:55;24.37;;;14.33;;
6483;SDS011;3275;52.376;9.694;2023-11-18T04:33:22;27.03;;;14.27;;
6483;SDS011;3275;52.376;9.694;2023-11-18T04:35:49;30.27;;;14.73;;
6483;SDS011;3275;52.376;9.694;2023-11-18T04:38:16;26.63;;;15.23;;
6483;SDS011;3275;52.376;9.694;2023-11-18T04:40:43;35.60;;;15.17;;
6483;SDS011;3275;52.376;9.694;2023-11-18T04:43:12;25.33;;;15.17;;
6483;SDS011;3275;52.376;9.694;2023-11-18T04:45:39;32.57;;;15.77;;
6483;SDS011;3275;52.376;9.694;2023-11-18T04:48:05;29.10;;;15.00;;
6483;SDS011;3275;52.376;9.694;2023-11-18T04:50:32;31.37;;;15.97;;
6483;SDS011;3275;52.376;9.694;2023-11-18T04:52:59;26.93;;;15.67;;
6483;SDS011;3275;52.376;9.694;2023-11-18T04:55:27;27.60;;;15.53;;
6483;SDS011;3275;52.376;9.694;2023-11-18T04:57:54;31.23;;;15.90;;
6483;SDS011;3275;52.376;9.694;2023-11-18T05:00:22;33.57;;;15.63;;
6483;SDS011;3275;52.376;9.694;2023-11-18T05:02:49;35.23;;;16.10;;
6483;SDS011;3275;52.376;9.694;2023-11-18T05:05:16;29.20;;;14.43;;
6483;SDS011;3275;52.376;9.694;2023-11-18T05:07:43;28.57;;;16.30;;
6483;SDS011;3275;52.376;9.694;2023-11-18T05:10:10;30.93;;;15.67;;
6483;SDS011;3275;52.376;9.694;2023-11-18T05:12:36;25.83;;;14.40;;
6483;SDS011;3275;52.376;9.694;2023-11-18T05:15:05;28.30;;;14.97;;
6483;SDS011;3275;52.376;9.694;2023-11-18T05:17:34;28.30;;;14.40;;
6483;SDS011;3275;52.376;9.694;2023-11-18T05:20:01;30.70;;;16.67;;
6483;SDS011;3275;52.376;9.694;2023-11-18T05:22:28;27.17;;;15.50;;
6483;SDS011;3275;52.376;9.694;2023-11-18T05:24:56;31.10;;;15.43;;
6483;SDS011;3275;52.376;9.694;2023-11-18T05:27:22;26.40;;;14.90;;
6483;SDS011;3275;52.376;9.694;2023-11-18T05:29:50;34.33;;;15.47;;
6483;SDS011;3275;52.376;9.694;2023-11-18T05:32:19;28.80;;;14.97;;
6483;SDS011;3275;52.376;9.694;2023-11-18T05:34:47;28.17;;;14.87;;
6483;SDS011;3275;52.376;9.694;2023-11-18T05:37:14;31.60;;;15.87;;
6483;SDS011;3275;52.376;9.694;2023-11-18T05:39:43;29.60;;;15.77;;
6483;SDS011;3275;52.376;9.694;2023-11-18T05:42:10;28.13;;;15.87;;
6483;SDS011;3275;52.376;9.694;2023-11-18T05:44:37;33.30;;;15.57;;
6483;SDS011;3275;52.376;9.694;2023-11-18T05:47:04;32.23;;;15.63;;
6483;SDS011;3275;52.376;9.694;2023-11-18T05:49:32;32.30;;;16.23;;
6483;SDS011;3275;52.376;9.694;2023-11-18T05:52:00;33.30;;;15.90;;
6483;SDS011;3275;52.376;9.694;2023-11-18T05:54:26;33.23;;;15.83;;
6483;SDS011;3275;52.376;9.694;2023-11-18T05:56:53;35.23;;;18.43;;
6483;SDS011;3275;52.376;9.694;2023-11-18T05:59:20;35.43;;;17.10;;
6483;SDS011;3275;52.376;9.694;2023-11-18T06:01:47;34.53;;;15.73;;
6483;SDS011;3275;52.376;9.694;2023-11-18T06:04:13;34.67;;;15.80;;
6483;SDS011;3275;52.376;9.694;2023-11-18T06:06:40;35.30;;;14.87;;
6483;SDS011;3275;52.376;9.694;2023-11-18T06:09:08;35.23;;;16.17;;
6483;SDS011;3275;52.376;9.694;2023-11-18T06:11:43;35.57;;;14.33;;
6483;SDS011;3275;52.376;9.694;2023-11-18T06:14:10;38.43;;;17.03;;
6483;SDS011;3275;52.376;9.694;2023-11-18T06:16:38;33.83;;;15.73;;
6483;SDS011;3275;52.376;9.694;2023-11-18T06:19:05;36.93;;;16.50;;
6483;SDS011;3275;52.376;9.694;2023-11-18T06:21:33;38.43;;;17.13;;
6483;SDS011;3275;52.376;9.694;2023-11-18T06:24:00;38.73;;;16.27;;
6483;SDS011;3275;52.376;9.694;2023-11-18T06:26:30;39.00;;;16.63;;
6483;SDS011;3275;52.376;9.694;2023-11-18T06:28:57;45.57;;;14.93;;
6483;SDS011;3275;52.376;9.694;2023-11-18T06:31:24;39.27;;;15.80;;
6483;SDS011;3275;52.376;9.694;2023-11-18T06:33:51;41.17;;;18.00;;
6483;SDS011;3275;52.376;9.694;2023-11-18T06:36:18;35.87;;;16.53;;
6483;SDS011;3275;52.376;9.694;2023-11-18T06:38:46;43.60;;;19.00;;
6483;SDS011;3275;52.376;9.694;2023-11-18T06:41:15;49.07;;;18.67;;
6483;SDS011;3275;52.376;9.694;2023-11-18T06:43:44;42.57;;;17.73;;
6483;SDS011;3275;52.376;9.694;2023-11-18T06:46:22;38.87;;;16.23;;
6483;SDS011;3275;52.376;9.694;2023-11-18T06:48:49;36.80;;;15.53;;
6483;SDS011;3275;52.376;9.694;2023-11-18T06:51:19;42.70;;;16.40;;
6483;SDS011;3275;52.376;9.694;2023-11-18T06:53:48;44.50;;;17.60;;
6483;SDS011;3275;52.376;9.694;2023-11-18T06:56:15;42.40;;;18.03;;
6483;SDS011;3275;52.376;9.694;2023-11-18T06:58:43;49.77;;;17.10;;
6483;SDS011;3275;52.376;9.694;2023-11-18T07:01:12;33.97;;;16.40;;
6483;SDS011;3275;52.376;9.694;2023-11-18T07:03:39;45.67;;;18.97;;
6483;SDS011;3275;52.376;9.694;2023-11-18T07:06:07;44.07;;;17.63;;
6483;SDS011;3275;52.376;9.694;2023-11-18T07:08:34;44.77;;;17.80;;
6483;SDS011;3275;52.376;9.694;2023-11-18T07:11:01;41.80;;;17.20;;
6483;SDS011;3275;52.376;9.694;2023-11-18T07:13:29;46.87;;;18.33;;
6483;SDS011;3275;52.376;9.694;2023-11-18T07:15:57;48.13;;;18.73;;
6483;SDS011;3275;52.376;9.694;2023-11-18T07:18:24;46.40;;;18.87;;
6483;SDS011;3275;52.376;9.694;2023-11-18T07:20:51;44.23;;;18.80;;
6483;SDS011;3275;52.376;9.694;2023-11-18T07:23:18;51.27;;;20.57;;
6483;SDS011;3275;52.376;9.694;2023-11-18T07:25:44;46.83;;;18.70;;
6483;SDS011;3275;52.376;9.694;2023-11-18T07:28:12;46.13;;;18.10;;
6483;SDS011;3275;52.376;9.694;2023-11-18T07:30:40;53.20;;;18.60;;
6483;SDS011;3275;52.376;9.694;2023-11-18T07:33:08;47.30;;;16.70;;
6483;SDS011;3275;52.376;9.694;2023-11-18T07:35:35;50.23;;;17.63;;
6483;SDS011;3275;52.376;9.694;2023-11-18T07:38:02;54.53;;;19.33;;
6483;SDS011;3275;52.376;9.694;2023-11-18T07:40:31;40.30;;;18.10;;
6483;SDS011;3275;52.376;9.694;2023-11-18T07:42:58;49.77;;;18.50;;
6483;SDS011;3275;52.376;9.694;2023-11-18T07:45:26;46.43;;;17.70;;
6483;SDS011;3275;52.376;9.694;2023-11-18T07:47:54;47.20;;;17.27;;
6483;SDS011;3275;52.376;9.694;2023-11-18T07:50:22;44.23;;;17.50;;
6483;SDS011;3275;52.376;9.694;2023-11-18T07:52:49;47.10;;;17.40;;
6483;SDS011;3275;52.376;9.694;2023-11-18T07:55:16;44.87;;;17.50;;
6483;SDS011;3275;52.376;9.694;2023-11-18T07:57:43;46.60;;;18.60;;
6483;SDS011;3275;52.376;9.694;2023-11-18T08:00:10;46.27;;;16.33;;
6483;SDS011;3275;52.376;9.694;2023-11-18T08:02:40;43.73;;;16.80;;
6483;SDS011;3275;52.376;9.694;2023-11-18T08:05:06;60.53;;;18.83;;
6483;SDS011;3275;52.376;9.694;2023-11-18T08:07:35;47.13;;;18.57;;
6483;SDS011;3275;52.376;9.694;2023-11-18T08:10:03;47.93;;;18.53;;
6483;SDS011;3275;52.376;9.694;2023-11-18T08:12:30;48.20;;;18.10;;
6483;SDS011;3275;52.376;9.694;2023-11-18T08:14:58;39.63;;;16.87;;
6483;SDS011;3275;52.376;9.694;2023-11-18T08:17:25;44.93;;;19.23;;
6483;SDS011;3275;52.376;9.694;2023-11-18T08:19:52;44.80;;;17.33;;
6483;SDS011;3275;52.376;9.694;2023-11-18T08:22:19;54.30;;;19.37;;
6483;SDS011;3275;52.376;9.694;2023-11-18T08:24:49;45.43;;;17.67;;
6483;SDS011;3275;52.376;9.694;2023-11-18T08:27:16;42.30;;;17.70;;
6483;SDS011;3275;52.376;9.694;2023-11-18T08:29:43;56.23;;;18.30;;
6483;SDS011;3275;52.376;9.694;2023-11-18T08:32:11;44.30;;;17.37;;
6483;SDS011;3275;52.376;9.694;2023-11-18T08:34:38;54.10;;;18.47;;
6483;SDS011;3275;52.376;9.694;2023-11-18T08:37:05;44.60;;;18.40;;
6483;SDS011;3275;52.376;9.694;2023-11-18T08:39:32;43.07;;;17.33;;
6483;SDS011;3275;52.376;9.694;2023-11-18T08:42:00;57.60;;;19.73;;
6483;SDS011;3275;52.376;9.694;2023-11-18T08:44:27;39.17;;;16.33;;
6483;SDS011;3275;52.376;9.694;2023-11-18T08:46:54;53.03;;;19.07;;
6483;SDS011;3275;52.376;9.694;2023-11-18T08:49:22;42.80;;;16.13;;
6483;SDS011;3275;52.376;9.694;2023-11-18T08:51:51;47.60;;;18.10;;
6483;SDS011;3275;52.376;9.694;2023-11-18T08:54:21;45.27;;;17.03;;
6483;SDS011;3275;52.376;9.694;2023-11-18T08:57:02;49.47;;;18.00;;
6483;SDS011;3275;52.376;9.694;2023-11-18T08:59:37;38.10;;;15.87;;
6483;SDS011;3275;52.376;9.694;2023-11-18T09:02:04;44.80;;;16.90;;
6483;SDS011;3275;52.376;9.694;2023-11-18T09:04:33;43.00;;;16.50;;
6483;SDS011;3275;52.376;9.694;2023-11-18T09:07:01;38.17;;;15.60;;
6483;SDS011;3275;52.376;9.694;2023-11-18T09:09:29;41.93;;;18.07;;
6483;SDS011;3275;52.376;9.694;2023-11-18T09:11:58;34.70;;;16.60;;
6483;SDS011;3275;52.376;9.694;2023-11-18T09:14:27;47.50;;;16.67;;
6483;SDS011;3275;52.376;9.694;2023-11-18T09:16:54;37.47;;;15.73;;
6483;SDS011;3275;52.376;9.694;2023-11-18T09:19:23;39.53;;;15.97;;
6483;SDS011;3275;52.376;9.694;2023-11-18T09:21:50;41.40;;;15.80;;
6483;SDS011;3275;52.376;9.694;2023-11-18T09:24:17;42.77;;;15.60;;
6483;SDS011;3275;52.376;9.694;2023-11-18T09:26:45;41.57;;;17.63;;
6483;SDS011;3275;52.376;9.694;2023-11-18T09:29:15;35.03;;;15.80;;
6483;SDS011;3275;52.376;9.694;2023-11-18T09:31:44;43.10;;;14.57;;
6483;SDS011;3275;52.376;9.694;2023-11-18T12:59:15;11.23;;;5.10;;
6483;SDS011;3275;52.376;9.694;2023-11-18T13:01:43;10.50;;;5.27;;
6483;SDS011;3275;52.376;9.694;2023-11-18T13:04:16;8.13;;;4.63;;
6483;SDS011;3275;52.376;9.694;2023-11-18T13:06:44;8.07;;;5.63;;
6483;SDS011;3275;52.376;9.694;2023-11-18T13:09:11;10.30;;;5.20;;
6483;SDS011;3275;52.376;9.694;2023-11-18T13:11:51;11.17;;;5.57;;
6483;SDS011;3275;52.376;9.694;2023-11-18T13:14:22;7.17;;;4.63;;
6483;SDS011;3275;52.376;9.694;2023-11-18T13:16:51;9.77;;;5.57;;
6483;SDS011;3275;52.376;9.694;2023-11-18T13:19:24;11.20;;;5.03;;
6483;SDS011;3275;52.376;9.694;2023-11-18T13:21:55;9.73;;;5.93;;
6483;SDS011;3275;52.376;9.694;2023-11-18T13:24:24;12.80;;;5.33;;
6483;SDS011;3275;52.376;9.694;2023-11-18T13:26:53;11.13;;;6.17;;
6483;SDS011;3275;52.376;9.694;2023-11-18T13:29:20;8.13;;;5.13;;
6483;SDS011;3275;52.376;9.694;2023-11-18T13:31:48;7.67;;;4.80;;
6483;SDS011;3275;52.376;9.694;2023-11-18T13:34:16;11.00;;;5.13;;
6483;SDS011;3275;52.376;9.694;2023-11-18T13:36:46;9.30;;;5.07;;
6483;SDS011;3275;52.376;9.694;2023-11-18T13:39:17;9.10;;;5.40;;
6483;SDS011;3275;52.376;9.694;2023-11-18T13:41:43;8.70;;;4.87;;
6483;SDS011;3275;52.376;9.694;2023-11-18T13:44:12;8.43;;;5.93;;
6483;SDS011;3275;52.376;9.694;2023-11-18T13:46:39;9.00;;;4.87;;
6483;SDS011;3275;52.376;9.694;2023-11-18T13:49:07;12.50;;;5.73;;
6483;SDS011;3275;52.376;9.694;2023-11-18T13:51:34;10.40;;;5.30;;
6483;SDS011;3275;52.376;9.694;2023-11-18T13:54:01;11.47;;;6.47;;
6483;SDS011;3275;52.376;9.694;2023-11-18T13:56:29;19.40;;;7.97;;
6483;SDS011;3275;52.376;9.694;2023-11-18T13:58:57;11.70;;;5.07;;
6483;SDS011;3275;52.376;9.694;2023-11-18T14:01:25;20.47;;;8.77;;
6483;SDS011;3275;52.376;9.694;2023-11-18T14:03:53;12.30;;;7.10;;
6483;SDS011;3275;52.376;9.694;2023-11-18T14:06:21;11.37;;;5.60;;
6483;SDS011;3275;52.376;9.694;2023-11-18T14:08:48;12.37;;;5.23;;
6483;SDS011;3275;52.376;9.694;2023-11-18T14:11:16;11.80;;;6.20;;
6483;SDS011;3275;52.376;9.694;2023-11-18T14:13:43;9.33;;;5.40;;
6483;SDS011;3275;52.376;9.694;2023-11-18T14:16:10;13.47;;;6.27;;
6483;SDS011;3275;52.376;9.694;2023-11-18T14:18:38;9.07;;;5.60;;
6483;SDS011;3275;52.376;9.694;2023-11-18T14:21:06;11.60;;;5.60;;
6483;SDS011;3275;52.376;9.694;2023-11-18T14:23:34;13.50;;;5.37;;
6483;SDS011;3275;52.376;9.694;2023-11-18T14:26:02;11.27;;;5.50;;
6483;SDS011;3275;52.376;9.694;2023-11-18T14:28:29;9.87;;;5.47;;
6483;SDS011;3275;52.376;9.694;2023-11-18T14:30:56;15.53;;;6.30;;
6483;SDS011;3275;52.376;9.694;2023-11-18T14:33:23;9.97;;;5.40;;
6483;SDS011;3275;52.376;9.694;2023-11-18T14:35:51;8.83;;;5.87;;
6483;SDS011;3275;52.376;9.694;2023-11-18T14:38:18;14.03;;;6.00;;
6483;SDS011;3275;52.376;9.694;2023-11-18T14:40:46;8.80;;;5.30;;
6483;SDS011;3275;52.376;9.694;2023-11-18T14:43:14;9.73;;;5.23;;
6483;SDS011;3275;52.376;9.694;2023-11-18T14:45:41;10.03;;;5.43;;
6483;SDS011;3275;52.376;9.694;2023-11-18T14:48:08;11.13;;;5.70;;
6483;SDS011;3275;52.376;9.694;2023-11-18T14:50:35;9.90;;;4.90;;
6483;SDS011;3275;52.376;9.694;2023-11-18T14:53:04;10.27;;;5.13;;
6483;SDS011;3275;52.376;9.694;2023-11-18T14:55:31;9.10;;;4.80;;
6483;SDS011;3275;52.376;9.694;2023-11-18T14:57:58;11.10;;;5.80;;
6483;SDS011;3275;52.376;9.694;2023-11-18T15:00:25;7.47;;;5.20;;
6483;SDS011;3275;52.376;9.694;2023-11-18T15:02:57;11.43;;;5.47;;
6483;SDS011;3275;52.376;9.694;2023-11-18T15:05:23;9.47;;;4.73;;
6483;SDS011;3275;52.376;9.694;2023-11-18T15:07:51;8.23;;;4.73;;
6483;SDS011;3275;52.376;9.694;2023-11-18T15:10:21;8.73;;;5.07;;
6483;SDS011;3275;52.376;9.694;2023-11-18T15:12:49;9.13;;;4.33;;
6483;SDS011;3275;52.376;9.694;2023-11-18T15:15:18;9.30;;;5.17;;
6483;SDS011;3275;52.376;9.694;2023-11-18T15:17:45;10.40;;;4.90;;
6483;SDS011;3275;52.376;9.694;2023-11-18T15:20:13;5.57;;;3.83;;
6483;SDS011;3275;52.376;9.694;2023-11-18T15:22:41;9.07;;;4.90;;
6483;SDS011;3275;52.376;9.694;2023-11-18T15:25:09;9.90;;;5.47;;
6483;SDS011;3275;52.376;9.694;2023-11-18T15:27:38;10.30;;;4.93;;
6483;SDS011;3275;52.376;9.694;2023-11-18T15:30:07;6.83;;;4.53;;
6483;SDS011;3275;52.376;9.694;2023-11-18T15:32:36;7.63;;;4.73;;
6483;SDS011;3275;52.376;9.694;2023-11-18T15:35:04;8.63;;;5.37;;
6483;SDS011;3275;52.376;9.694;2023-11-18T15:37:33;8.53;;;5.03;;
6483;SDS011;3275;52.376;9.694;2023-11-18T15:40:02;12.97;;;6.07;;
6483;SDS011;3275;52.376;9.694;2023-11-18T15:42:35;6.67;;;4.80;;
6483;SDS011;3275;52.376;9.694;2023-11-18T15:45:04;7.77;;;5.00;;
6483;SDS011;3275;52.376;9.694;2023-11-18T15:47:33;8.13;;;4.80;;
6483;SDS011;3275;52.376;9.694;2023-11-18T15:50:02;11.63;;;5.43;;
6483;SDS011;3275;52.376;9.694;2023-11-18T15:52:30;6.73;;;5.00;;
6483;SDS011;3275;52.376;9.694;2023-11-18T15:54:59;7.97;;;5.20;;
6483;SDS011;3275;52.376;9.694;2023-11-18T15:57:26;10.40;;;5.67;;
6483;SDS011;3275;52.376;9.694;2023-11-18T15:59:54;10.80;;;5.90;;
6483;SDS011;3275;52.376;9.694;2023-11-18T16:02:22;11.80;;;5.10;;
6483;SDS011;3275;52.376;9.694;2023-11-18T16:04:49;7.57;;;5.10;;
6483;SDS011;3275;52.376;9.694;2023-11-18T16:07:15;8.33;;;5.20;;
6483;SDS011;3275;52.376;9.694;2023-11-18T16:09:42;6.90;;;4.70;;
6483;SDS011;3275;52.376;9.694;2023-11-18T16:12:10;11.23;;;5.20;;
6483;SDS011;3275;52.376;9.694;2023-11-18T16:14:36;8.47;;;5.33;;
6483;SDS011;3275;52.376;9.694;2023-11-18T16:17:03;9.97;;;5.90;;
6483;SDS011;3275;52.376;9.694;2023-11-18T16:19:33;10.00;;;5.37;;
6483;SDS011;3275;52.376;9.694;2023-11-18T16:22:01;8.57;;;5.13;;
6483;SDS011;3275;52.376;9.694;2023-11-18T16:24:28;10.10;;;5.50;;
6483;SDS011;3275;52.376;9.694;2023-11-18T16:26:56;9.03;;;5.43;;
6483;SDS011;3275;52.376;9.694;2023-11-18T16:29:27;9.60;;;5.47;;
6483;SDS011;3275;52.376;9.694;2023-11-18T16:31:53;11.43;;;7.03;;
6483;SDS011;3275;52.376;9.694;2023-11-18T16:34:21;15.20;;;7.07;;
6483;SDS011;3275;52.376;9.694;2023-11-18T16:36:51;10.27;;;6.30;;
6483;SDS011;3275;52.376;9.694;2023-11-18T16:39:21;13.97;;;5.63;;
6483;SDS011;3275;52.376;9.694;2023-11-18T16:41:48;11.50;;;7.03;;
6483;SDS011;3275;52.376;9.694;2023-11-18T16:44:15;11.37;;;6.60;;
6483;SDS011;3275;52.376;9.694;2023-11-18T16:46:41;10.60;;;5.70;;
6483;SDS011;3275;52.376;9.694;2023-11-18T16:49:08;11.50;;;6.37;;
6483;SDS011;3275;52.376;9.694;2023-11-18T16:51:37;17.70;;;8.80;;
6483;SDS011;3275;52.376;9.694;2023-11-18T16:54:05;16.63;;;6.80;;
6483;SDS011;3275;52.376;9.694;2023-11-18T16:56:32;21.20;;;10.77;;
6483;SDS011;3275;52.376;9.694;2023-11-18T16:58:59;28.40;;;9.83;;
6483;SDS011;3275;52.376;9.694;2023-11-18T17:01:26;15.00;;;7.00;;
6483;SDS011;3275;52.376;9.694;2023-11-18T17:03:52;13.43;;;7.23;;
6483;SDS011;3275;52.376;9.694;2023-11-18T17:06:19;12.90;;;7.83;;
6483;SDS011;3275;52.376;9.694;2023-11-18T17:08:46;14.97;;;7.73;;
6483;SDS011;3275;52.376;9.694;2023-11-18T17:11:14;18.20;;;7.47;;
6483;SDS011;3275;52.376;9.694;2023-11-18T17:13:41;10.57;;;5.73;;
6483;SDS011;3275;52.376;9.694;2023-11-18T17:16:08;12.70;;;6.67;;
6483;SDS011;3275;52.376;9.694;2023-11-18T17:18:35;13.00;;;7.00;;
6483;SDS011;3275;52.376;9.694;2023-11-18T17:21:02;14.17;;;7.50;;
6483;SDS011;3275;52.376;9.694;2023-11-18T17:23:29;13.30;;;7.67;;
6483;SDS011;3275;52.376;9.694;2023-11-18T17:25:56;15.33;;;7.00;;
6483;SDS011;3275;52.376;9.694;2023-11-18T17:28:24;10.00;;;5.97;;
6483;SDS011;3275;52.376;9.694;2023-11-18T17:30:51;11.80;;;6.37;;
6483;SDS011;3275;52.376;9.694;2023-11-18T17:33:18;13.43;;;5.80;;
6483;SDS011;3275;52.376;9.694;2023-11-18T17:35:44;11.60;;;5.87;;
6483;SDS011;3275;52.376;9.694;2023-11-18T17:38:12;8.80;;;5.57;;
6483;SDS011;3275;52.376;9.694;2023-11-18T17:40:38;10.37;;;5.83;;
6483;SDS011;3275;52.376;9.694;2023-11-18T17:43:06;8.87;;;5.47;;
6483;SDS011;3275;52.376;9.694;2023-11-18T17:45:34;8.97;;;5.47;;
6483;SDS011;3275;52.376;9.694;2023-11-18T17:48:00;11.13;;;5.43;;
6483;SDS011;3275;52.376;9.694;2023-11-18T17:50:31;14.53;;;5.80;;
6483;SDS011;3275;52.376;9.694;2023-11-18T17:52:59;9.60;;;5.30;;
6483;SDS011;3275;52.376;9.694;2023-11-18T17:55:27;11.93;;;5.10;;
6483;SDS011;3275;52.376;9.694;2023-11-18T17:57:55;9.80;;;5.63;;
6483;SDS011;3275;52.376;9.694;2023-11-18T18:00:22;9.47;;;5.07;;
6483;SDS011;3275;52.376;9.694;2023-11-18T18:02:50;11.30;;;4.33;;
6483;SDS011;3275;52.376;9.694;2023-11-18T18:05:20;8.33;;;5.30;;
6483;SDS011;3275;52.376;9.694;2023-11-18T18:07:48;9.77;;;5.40;;
6483;SDS011;3275;52.376;9.694;2023-11-18T18:10:15;6.40;;;4.33;;
6483;SDS011;3275;52.376;9.694;2023-11-18T18:12:41;12.23;;;5.70;;
6483;SDS011;3275;52.376;9.694;2023-11-18T18:15:11;15.40;;;5.13;;
6483;SDS011;3275;52.376;9.694;2023-11-18T18:17:38;11.10;;;5.17;;
6483;SDS011;3275;52.376;9.694;2023-11-18T18:20:06;12.47;;;5.00;;
6483;SDS011;3275;52.376;9.694;2023-11-18T18:22:34;7.93;;;3.67;;
6483;SDS011;3275;52.376;9.694;2023-11-18T18:25:01;9.87;;;5.83;;
6483;SDS011;3275;52.376;9.694;2023-11-18T18:27:28;13.43;;;6.93;;
6483;SDS011;3275;52.376;9.694;2023-11-18T18:29:57;11.07;;;5.40;;
6483;SDS011;3275;52.376;9.694;2023-11-18T18:32:24;10.23;;;4.30;;
6483;SDS011;3275;52.376;9.694;2023-11-18T18:34:51;6.53;;;4.07;;
6483;SDS011;3275;52.376;9.694;2023-11-18T18:37:19;7.80;;;3.93;;
6483;SDS011;3275;52.376;9.694;2023-11-18T18:39:47;8.10;;;3.80;;
6483;SDS011;3275;52.376;9.694;2023-11-18T18:42:17;8.00;;;3.80;;
6483;SDS011;3275;52.376;9.694;2023-11-18T18:44:44;6.43;;;3.93;;
6483;SDS011;3275;52.376;9.694;2023-11-18T18:47:11;7.50;;;3.90;;
6483;SDS011;3275;52.376;9.694;2023-11-18T18:49:38;9.90;;;4.83;;
6483;SDS011;3275;52.376;9.694;2023-11-18T18:52:05;6.10;;;4.00;;
6483;SDS011;3275;52.376;9.694;2023-11-18T18:54:33;9.30;;;5.07;;
6483;SDS011;3275;52.376;9.694;2023-11-18T18:57:00;10.83;;;5.27;;
6483;SDS011;3275;52.376;9.694;2023-11-18T18:59:27;9.90;;;4.73;;
6483;SDS011;3275;52.376;9.694;2023-11-18T19:01:54;7.90;;;4.00;;
6483;SDS011;3275;52.376;9.694;2023-11-18T19:04:20;8.37;;;4.30;;
6483;SDS011;3275;52.376;9.694;2023-11-18T19:06:47;11.93;;;4.13;;
6483;SDS011;3275;52.376;9.694;2023-11-18T19:09:14;5.33;;;3.53;;
6483;SDS011;3275;52.376;9.694;2023-11-18T19:11:44;6.80;;;3.53;;
6483;SDS011;3275;52.376;9.694;2023-11-18T19:14:11;7.20;;;3.53;;
6483;SDS011;3275;52.376;9.694;2023-11-18T19:16:37;7.37;;;3.20;;
6483;SDS011;3275;52.376;9.694;2023-11-18T19:19:04;8.37;;;3.13;;
6483;SDS011;3275;52.376;9.694;2023-11-18T19:21:31;5.83;;;2.77;;
6483;SDS011;3275;52.376;9.694;2023-11-18T19:24:00;6.00;;;2.90;;
6483;SDS011;3275;52.376;9.694;2023-11-18T19:26:27;4.03;;;2.57;;
6483;SDS011;3275;52.376;9.694;2023-11-18T19:28:55;5.20;;;3.23;;
6483;SDS011;3275;52.376;9.694;2023-11-18T19:31:23;4.70;;;2.33;;
6483;SDS011;3275;52.376;9.694;2023-11-18T19:33:50;4.70;;;2.77;;
6483;SDS011;3275;52.376;9.694;2023-11-18T19:36:17;3.10;;;1.80;;
6483;SDS011;3275;52.376;9.694;2023-11-18T19:38:43;3.63;;;2.20;;
6483;SDS011;3275;52.376;9.694;2023-11-18T19:41:10;4.00;;;2.30;;
6483;SDS011;3275;52.376;9.694;2023-11-18T19:43:37;3.83;;;2.30;;
6483;SDS011;3275;52.376;9.694;2023-11-18T19:46:05;2.50;;;2.00;;
6483;SDS011;3275;52.376;9.694;2023-11-18T19:48:32;4.63;;;2.20;;
6483;SDS011;3275;52.376;9.694;2023-11-18T19:50:58;3.33;;;2.27;;
6483;SDS011;3275;52.376;9.694;2023-11-18T19:53:27;1.90;;;1.43;;
6483;SDS011;3275;52.376;9.694;2023-11-18T19:55:53;3.20;;;2.23;;
6483;SDS011;3275;52.376;9.694;2023-11-18T19:58:20;2.87;;;2.23;;
6483;SDS011;3275;52.376;9.694;2023-11-18T20:00:47;3.00;;;2.03;;